Dirección General De Aeronáutica Civil

Dirección Meteorológica de Chile - Servicios Climáticos

Informe General de Control de Calidad de la Estación

Listado de niveles de control de calidad para algunos parámetros
Estación Navidad (360075)
Fecha de Revisión de los datos :

Elementos

Registros Niveles de Control Total
Nivel 0 Nivel 1 Nivel 2 Nivel 3 Errores Porcentaje
01 Temperatura del Aire Seco 114.944 0 . 154 0.13 % 0 . 0 . 154 0.13 %
02 Temperatura de Rocío 43.740 0 . 0 . 0 . 0 . 0 0.00 %
03 Humedad Relativa del Aire 114.707 0 . 0 . 0 . 0 . 0 0.00 %
04 Temperatura Máxima PM 4.803 0 . 0 . 13 0.27 % 0 . 13 0.27 %
05 Temperatura Mínima AM 4.694 0 . 0 . 11 0.23 % 0 . 11 0.23 %
06 Agua Caida, Acumulada 6 Horas 18.847 0 . 0 . 0 . 0 . 0 0.00 %
07 Presión Atm. a Nivel de Estación (QFE) 114.940 0 . 0 . 0 . 0 . 0 0.00 %

Totales

416.675 . 0.0000 % . 0.0370 % . 0.0058 % . 0.0000 % 178 0.0427 %

Detalle de Errores Recientes

Fecha del Dato Descripción Información Error Fecha Ingreso
2022-08-26 00:00:00 Temperatura 17.3 del 25-08-2022 22:00, Mayor que la Máxima 15.9 26-08-2022 00:00 17.3 -- 15.9 2024-06-28 10:33:00
2022-08-27 00:00:00 Temperatura 21.2 del 26-08-2022 18:00, Mayor que la Máxima 13.1 27-08-2022 00:00 21.2 -- 13.1 2024-06-28 10:33:00
2022-08-28 00:00:00 Temperatura 21.2 del 27-08-2022 18:00, Mayor que la Máxima 13.4 28-08-2022 00:00 21.2 -- 13.4 2024-06-28 10:33:00
2022-08-29 00:00:00 Temperatura 31.8 del 28-08-2022 20:00, Mayor que la Máxima 24.7 29-08-2022 00:00 31.8 -- 24.7 2024-06-28 10:33:00
2022-08-30 00:00:00 Temperatura 31.7 del 29-08-2022 17:00, Mayor que la Máxima 22.3 30-08-2022 00:00 31.7 -- 22.3 2024-06-28 10:33:00
2022-08-31 00:00:00 Temperatura 13.2 del 30-08-2022 15:00, Mayor que la Máxima 9.7 31-08-2022 00:00 13.2 -- 9.7 2024-06-28 10:33:00
2022-09-01 00:00:00 Temperatura 19.1 del 31-08-2022 18:00, Mayor que la Máxima 12.2 01-09-2022 00:00 19.1 -- 12.2 2024-06-28 10:33:00
2022-09-02 00:00:00 Temperatura 23.1 del 01-09-2022 19:00, Mayor que la Máxima 14.9 02-09-2022 00:00 23.1 -- 14.9 2024-06-28 10:33:00
2022-08-26 12:00:00 Temperatura 0.2 del 26-08-2022 06:00, Menor que la Mínima 1.0 26-08-2022 12:00 0.2 -- 1.0 2024-06-28 10:33:00
2022-08-27 12:00:00 Temperatura 0.5 del 27-08-2022 11:00, Menor que la Mínima 1.5 27-08-2022 12:00 0.5 -- 1.5 2024-06-28 10:33:00
2022-08-28 12:00:00 Temperatura -1.0 del 28-08-2022 07:00, Menor que la Mínima 0.0 28-08-2022 12:00 -1.0 -- 0.0 2024-06-28 10:33:00
2022-08-29 12:00:00 Temperatura 3.8 del 29-08-2022 11:00, Menor que la Mínima 5.3 29-08-2022 12:00 3.8 -- 5.3 2024-06-28 10:33:00
2022-08-30 12:00:00 Temperatura 4.7 del 30-08-2022 06:00, Menor que la Mínima 5.5 30-08-2022 12:00 4.7 -- 5.5 2024-06-28 10:33:00
2022-09-01 12:00:00 Temperatura 2.0 del 01-09-2022 10:00, Menor que la Mínima 2.7 01-09-2022 12:00 2.0 -- 2.7 2024-06-28 10:33:00
2022-09-02 12:00:00 Temperatura -1.0 del 02-09-2022 06:00, Menor que la Mínima 0.7 02-09-2022 12:00 -1.0 -- 0.7 2024-06-28 10:33:00
Total de Errores Recientes 15

Detalle de Errores Encontrados

Nivel Fecha del Dato Descripción Información Error Fecha Ingreso
1 2011-06-01 09:00:00 Ts debe ser mayor o igual a Td Ts=1.8 - Td=1.9 2023-11-19 07:34:00
1 2011-06-07 19:00:00 Ts debe ser mayor o igual a Td Ts=10.5 - Td=10.7 2023-11-19 07:34:00
1 2011-06-10 23:00:00 Ts debe ser mayor o igual a Td Ts=11.7 - Td=11.8 2023-11-19 07:34:00
1 2011-06-11 01:00:00 Ts debe ser mayor o igual a Td Ts=10.6 - Td=10.8 2023-11-19 07:34:00
1 2011-06-11 02:00:00 Ts debe ser mayor o igual a Td Ts=10.6 - Td=10.8 2023-11-19 07:34:00
1 2011-06-11 08:00:00 HR (Humedad Relativa) es igual a 100% y Ts <> Td 9.5 - 9.0 2023-11-19 07:34:00
1 2011-06-11 09:00:00 Ts debe ser mayor o igual a Td Ts=8.9 - Td=9.0 2023-11-19 07:34:00
1 2011-06-14 01:00:00 Ts debe ser mayor o igual a Td Ts=1.8 - Td=2.0 2023-11-19 07:34:00
1 2011-06-14 01:00:00 HR (Humedad Relativa) es igual a 100% y Ts <> Td 1.8 - 2.0 2023-11-19 07:34:00
1 2011-06-14 03:00:00 Ts debe ser mayor o igual a Td Ts=1.6 - Td=2.0 2023-11-19 07:34:00
1 2011-06-15 05:00:00 Ts debe ser mayor o igual a Td Ts=4.6 - Td=4.9 2023-11-19 07:34:00
1 2011-06-16 04:00:00 Ts debe ser mayor o igual a Td Ts=5.9 - Td=6.0 2023-11-19 07:34:00
1 2011-06-16 11:00:00 Ts debe ser mayor o igual a Td Ts=6.6 - Td=6.9 2023-11-19 07:34:00
1 2011-06-21 06:00:00 Ts debe ser mayor o igual a Td Ts=3.5 - Td=3.6 2023-11-19 07:34:00
1 2011-06-22 02:00:00 Ts debe ser mayor o igual a Td Ts=2.8 - Td=3.0 2023-11-19 07:34:00
1 2011-06-22 02:00:00 HR (Humedad Relativa) es igual a 100% y Ts <> Td 2.8 - 3.0 2023-11-19 07:34:00
1 2011-06-22 04:00:00 Ts debe ser mayor o igual a Td Ts=3.5 - Td=4.0 2023-11-19 07:34:00
1 2011-06-22 06:00:00 HR (Humedad Relativa) es igual a 100% y Ts <> Td 1.2 - 1.0 2023-11-19 07:34:00
1 2011-06-22 07:00:00 HR (Humedad Relativa) es igual a 100% y Ts <> Td 0.3 - 0.0 2023-11-19 07:34:00
1 2011-06-22 10:00:00 Ts debe ser mayor o igual a Td Ts=0.5 - Td=1.0 2023-11-19 07:34:00
1 2011-06-22 10:00:00 HR (Humedad Relativa) es igual a 100% y Ts <> Td 0.5 - 1.0 2023-11-19 07:34:00
1 2011-06-22 11:00:00 HR (Humedad Relativa) es igual a 100% y Ts <> Td -0.5 - -1.0 2023-11-19 07:34:00
1 2011-06-22 12:00:00 Ts debe ser mayor o igual a Td Ts=-0.5 - Td=0.0 2023-11-19 07:34:00
1 2011-06-29 12:00:00 HR (Humedad Relativa) es igual a 100% y Ts <> Td 9.4 - 9.0 2023-11-19 07:34:00
1 2011-06-29 14:00:00 Ts debe ser mayor o igual a Td Ts=10.6 - Td=11.0 2023-11-19 07:34:00
1 2011-06-29 15:00:00 Ts debe ser mayor o igual a Td Ts=10.5 - Td=10.8 2023-11-19 07:34:00
1 2011-06-30 04:00:00 Ts debe ser mayor o igual a Td Ts=-0.4 - Td=-0.3 2023-11-19 07:34:00
1 2011-06-30 07:00:00 Ts debe ser mayor o igual a Td Ts=-1.3 - Td=-1.1 2023-11-19 07:34:00
1 2011-07-02 04:00:00 Ts debe ser mayor o igual a Td Ts=0.5 - Td=0.7 2023-11-19 07:34:00
1 2011-07-02 06:00:00 Ts debe ser mayor o igual a Td Ts=-2.1 - Td=-2.0 2023-11-19 07:34:00
1 2011-07-02 07:00:00 HR (Humedad Relativa) es igual a 100% y Ts <> Td -1.7 - -2.0 2023-11-19 07:34:00
1 2011-07-02 09:00:00 Ts debe ser mayor o igual a Td Ts=-3.2 - Td=-3.1 2023-11-19 07:34:00
1 2011-07-06 04:00:00 Ts debe ser mayor o igual a Td Ts=0.6 - Td=1.0 2023-11-19 07:34:00
1 2011-07-06 06:00:00 HR (Humedad Relativa) es igual a 100% y Ts <> Td -1.6 - -2.0 2023-11-19 07:34:00
1 2011-07-06 07:00:00 HR (Humedad Relativa) es igual a 100% y Ts <> Td -1.7 - -2.0 2023-11-19 07:34:00
1 2011-07-06 08:00:00 HR (Humedad Relativa) es igual a 100% y Ts <> Td -1.7 - -2.0 2023-11-19 07:34:00
1 2011-07-06 09:00:00 HR (Humedad Relativa) es igual a 100% y Ts <> Td -1.6 - -2.0 2023-11-19 07:34:00
1 2011-07-06 11:00:00 Ts debe ser mayor o igual a Td Ts=-0.4 - Td=0.0 2023-11-19 07:34:00
1 2011-07-06 11:00:00 HR (Humedad Relativa) es igual a 100% y Ts <> Td -0.4 - 0.0 2023-11-19 07:34:00
1 2011-07-06 12:00:00 Ts debe ser mayor o igual a Td Ts=-0.5 - Td=0.0 2023-11-19 07:34:00
1 2011-07-06 12:00:00 HR (Humedad Relativa) es igual a 100% y Ts <> Td -0.5 - 0.0 2023-11-19 07:34:00
1 2011-07-06 13:00:00 HR (Humedad Relativa) es igual a 100% y Ts <> Td -0.6 - -1.0 2023-11-19 07:34:00
1 2011-07-06 16:00:00 Ts debe ser mayor o igual a Td Ts=0.8 - Td=1.0 2023-11-19 07:34:00
1 2011-07-06 17:00:00 HR (Humedad Relativa) es igual a 100% y Ts <> Td 1.5 - 1.0 2023-11-19 07:34:00
1 2011-07-06 18:00:00 HR (Humedad Relativa) es igual a 100% y Ts <> Td 2.4 - 2.0 2023-11-19 07:34:00
1 2011-07-06 23:00:00 Ts debe ser mayor o igual a Td Ts=1.7 - Td=2.0 2023-11-19 07:34:00
1 2011-07-06 23:00:00 HR (Humedad Relativa) es igual a 100% y Ts <> Td 1.7 - 2.0 2023-11-19 07:34:00
1 2011-07-07 01:00:00 HR (Humedad Relativa) es igual a 100% y Ts <> Td 0.2 - 0.0 2023-11-19 07:34:00
1 2011-07-07 02:00:00 HR (Humedad Relativa) es igual a 100% y Ts <> Td -0.6 - -1.0 2023-11-19 07:34:00
1 2011-07-07 03:00:00 Ts debe ser mayor o igual a Td Ts=0.8 - Td=1.0 2023-11-19 07:34:00
1 2011-07-07 04:00:00 Ts debe ser mayor o igual a Td Ts=-1.1 - Td=-1.0 2023-11-19 07:34:00
1 2011-07-07 05:00:00 HR (Humedad Relativa) es igual a 100% y Ts <> Td -1.6 - -2.0 2023-11-19 07:34:00
1 2011-07-07 06:00:00 HR (Humedad Relativa) es igual a 100% y Ts <> Td -1.6 - -2.0 2023-11-19 07:34:00
1 2011-07-08 01:00:00 Ts debe ser mayor o igual a Td Ts=6.5 - Td=6.7 2023-11-19 07:34:00
1 2011-07-08 04:00:00 Ts debe ser mayor o igual a Td Ts=1.7 - Td=2.0 2023-11-19 07:34:00
1 2011-07-09 05:00:00 Ts debe ser mayor o igual a Td Ts=3.8 - Td=4.0 2023-11-19 07:34:00
1 2011-07-09 05:00:00 HR (Humedad Relativa) es igual a 100% y Ts <> Td 3.8 - 4.0 2023-11-19 07:34:00
1 2011-07-11 23:00:00 Ts debe ser mayor o igual a Td Ts=9.9 - Td=10.0 2023-11-19 07:35:00
1 2011-07-12 00:00:00 Ts debe ser mayor o igual a Td Ts=9.7 - Td=10.0 2023-11-19 07:35:00
1 2011-07-12 04:00:00 Ts debe ser mayor o igual a Td Ts=9.6 - Td=10.0 2023-11-19 07:35:00
1 2011-07-14 11:00:00 Ts debe ser mayor o igual a Td Ts=5.8 - Td=5.9 2023-11-19 07:35:00
1 2011-07-15 22:00:00 Ts debe ser mayor o igual a Td Ts=4.8 - Td=5.0 2023-11-19 07:35:00
1 2011-07-16 03:00:00 Ts debe ser mayor o igual a Td Ts=4.9 - Td=5.0 2023-11-19 07:35:00
1 2011-07-16 04:00:00 Ts debe ser mayor o igual a Td Ts=4.9 - Td=5.0 2023-11-19 07:35:00
1 2011-07-17 13:00:00 Ts debe ser mayor o igual a Td Ts=3.8 - Td=4.0 2023-11-19 07:35:00
1 2011-07-17 13:00:00 HR (Humedad Relativa) es igual a 100% y Ts <> Td 3.8 - 4.0 2023-11-19 07:35:00
1 2011-07-17 20:00:00 Ts debe ser mayor o igual a Td Ts=1.7 - Td=1.9 2023-11-19 07:35:00
1 2011-07-17 21:00:00 Ts debe ser mayor o igual a Td Ts=1.5 - Td=1.6 2023-11-19 07:35:00
1 2011-07-18 03:00:00 Ts debe ser mayor o igual a Td Ts=1.7 - Td=1.9 2023-11-19 07:35:00
1 2011-07-18 09:00:00 Ts debe ser mayor o igual a Td Ts=-0.4 - Td=0.0 2023-11-19 07:35:00
1 2011-07-18 09:00:00 HR (Humedad Relativa) es igual a 100% y Ts <> Td -0.4 - 0.0 2023-11-19 07:35:00
1 2011-07-18 10:00:00 HR (Humedad Relativa) es igual a 100% y Ts <> Td -0.6 - -1.0 2023-11-19 07:35:00
1 2011-07-18 11:00:00 HR (Humedad Relativa) es igual a 100% y Ts <> Td -0.7 - -1.0 2023-11-19 07:35:00
1 2011-07-19 01:00:00 Ts debe ser mayor o igual a Td Ts=2.8 - Td=3.0 2023-11-19 07:35:00
1 2011-07-22 02:00:00 Ts debe ser mayor o igual a Td Ts=3.5 - Td=4.0 2023-11-19 07:35:00
1 2011-07-22 03:00:00 Ts debe ser mayor o igual a Td Ts=2.7 - Td=3.0 2023-11-19 07:35:00
1 2011-07-22 06:00:00 Ts debe ser mayor o igual a Td Ts=0.9 - Td=1.0 2023-11-19 07:35:00
1 2011-07-23 01:00:00 Ts debe ser mayor o igual a Td Ts=4.8 - Td=4.9 2023-11-19 07:35:00
1 2011-07-24 12:00:00 HR (Humedad Relativa) es igual a 100% y Ts <> Td 3.2 - 3.0 2023-11-19 07:35:00
1 2011-07-24 13:00:00 Ts debe ser mayor o igual a Td Ts=3.7 - Td=4.0 2023-11-19 07:35:00
1 2011-07-24 13:00:00 HR (Humedad Relativa) es igual a 100% y Ts <> Td 3.7 - 4.0 2023-11-19 07:35:00
1 2011-07-24 16:00:00 Ts debe ser mayor o igual a Td Ts=4.9 - Td=5.0 2023-11-19 07:35:00
1 2011-07-24 17:00:00 HR (Humedad Relativa) es igual a 100% y Ts <> Td 5.5 - 5.0 2023-11-19 07:35:00
1 2011-07-26 06:00:00 Ts debe ser mayor o igual a Td Ts=1.6 - Td=2.0 2023-11-19 07:35:00
1 2011-07-26 06:00:00 HR (Humedad Relativa) es igual a 100% y Ts <> Td 1.6 - 2.0 2023-11-19 07:35:00
1 2011-07-27 07:00:00 Ts debe ser mayor o igual a Td Ts=5.6 - Td=5.7 2023-11-19 07:35:00
1 2011-07-28 02:00:00 Ts debe ser mayor o igual a Td Ts=7.5 - Td=7.7 2023-11-19 07:35:00
1 2011-07-28 04:00:00 Ts debe ser mayor o igual a Td Ts=7.8 - Td=7.9 2023-11-19 07:35:00
1 2011-07-28 05:00:00 Ts debe ser mayor o igual a Td Ts=7.7 - Td=7.9 2023-11-19 07:35:00
1 2011-07-29 06:00:00 Ts debe ser mayor o igual a Td Ts=0.7 - Td=0.9 2023-11-19 07:35:00
1 2011-07-29 09:00:00 Ts debe ser mayor o igual a Td Ts=-0.3 - Td=-0.1 2023-11-19 07:35:00
1 2011-07-30 03:00:00 Ts debe ser mayor o igual a Td Ts=2.6 - Td=2.7 2023-11-19 07:35:00
1 2011-07-30 12:00:00 Ts debe ser mayor o igual a Td Ts=1.7 - Td=1.9 2023-11-19 07:35:00
1 2011-08-03 09:00:00 Ts debe ser mayor o igual a Td Ts=0.5 - Td=0.7 2023-11-19 07:35:00
1 2011-08-04 01:00:00 Ts debe ser mayor o igual a Td Ts=4.8 - Td=5.0 2023-11-19 07:35:00
1 2011-08-04 02:00:00 HR (Humedad Relativa) es igual a 100% y Ts <> Td 3.3 - 3.0 2023-11-19 07:35:00
1 2011-08-04 04:00:00 Ts debe ser mayor o igual a Td Ts=2.5 - Td=2.9 2023-11-19 07:35:00
1 2011-08-07 23:00:00 Ts debe ser mayor o igual a Td Ts=8.5 - Td=8.7 2023-11-19 07:35:00
1 2011-08-10 00:00:00 Ts debe ser mayor o igual a Td Ts=11.7 - Td=11.8 2023-11-19 07:35:00
1 2011-08-10 01:00:00 Ts debe ser mayor o igual a Td Ts=11.7 - Td=11.8 2023-11-19 07:35:00
1 2011-08-10 02:00:00 Ts debe ser mayor o igual a Td Ts=11.6 - Td=11.8 2023-11-19 07:35:00
1 2011-08-10 08:00:00 Ts debe ser mayor o igual a Td Ts=10.7 - Td=10.8 2023-11-19 07:35:00
1 2011-08-10 09:00:00 Ts debe ser mayor o igual a Td Ts=10.6 - Td=11.0 2023-11-19 07:35:00
1 2011-08-10 10:00:00 Ts debe ser mayor o igual a Td Ts=10.5 - Td=10.8 2023-11-19 07:35:00
1 2011-08-10 12:00:00 Ts debe ser mayor o igual a Td Ts=10.5 - Td=10.7 2023-11-19 07:35:00
1 2011-08-10 13:00:00 Ts debe ser mayor o igual a Td Ts=10.6 - Td=11.0 2023-11-19 07:35:00
1 2011-08-11 21:00:00 Ts debe ser mayor o igual a Td Ts=10.5 - Td=10.7 2023-11-19 07:35:00
1 2011-08-12 06:00:00 Ts debe ser mayor o igual a Td Ts=8.6 - Td=8.8 2023-11-19 07:35:00
1 2011-08-12 09:00:00 Ts debe ser mayor o igual a Td Ts=7.5 - Td=8.0 2023-11-19 07:35:00
1 2011-08-12 12:00:00 HR (Humedad Relativa) es igual a 100% y Ts <> Td 5.3 - 5.0 2023-11-19 07:35:00
1 2011-08-13 07:00:00 HR (Humedad Relativa) es igual a 100% y Ts <> Td 1.5 - 1.0 2023-11-19 07:35:00
1 2011-08-13 10:00:00 Ts debe ser mayor o igual a Td Ts=1.7 - Td=1.9 2023-11-19 07:35:00
1 2011-08-14 04:00:00 Ts debe ser mayor o igual a Td Ts=0.6 - Td=1.0 2023-11-19 07:35:00
1 2011-08-14 04:00:00 HR (Humedad Relativa) es igual a 100% y Ts <> Td 0.6 - 1.0 2023-11-19 07:35:00
1 2011-08-18 09:00:00 Ts debe ser mayor o igual a Td Ts=1.6 - Td=2.0 2023-11-19 07:35:00
1 2011-08-18 10:00:00 Ts debe ser mayor o igual a Td Ts=0.6 - Td=0.7 2023-11-19 07:35:00
1 2011-08-18 12:00:00 Ts debe ser mayor o igual a Td Ts=0.6 - Td=0.7 2023-11-19 07:35:00
1 2011-08-24 03:00:00 Ts debe ser mayor o igual a Td Ts=6.9 - Td=7.0 2023-11-19 07:35:00
1 2011-08-24 05:00:00 Ts debe ser mayor o igual a Td Ts=6.6 - Td=6.7 2023-11-19 07:35:00
1 2011-08-24 09:00:00 Ts debe ser mayor o igual a Td Ts=5.8 - Td=6.0 2023-11-19 07:35:00
1 2011-08-26 10:00:00 Ts debe ser mayor o igual a Td Ts=7.6 - Td=7.7 2023-11-19 07:35:00
1 2011-08-27 07:00:00 Ts debe ser mayor o igual a Td Ts=6.7 - Td=7.0 2023-11-19 07:35:00
1 2011-09-03 08:00:00 Ts debe ser mayor o igual a Td Ts=6.6 - Td=6.9 2023-11-19 07:35:00
1 2011-09-03 10:00:00 Ts debe ser mayor o igual a Td Ts=6.6 - Td=6.9 2023-11-19 07:35:00
1 2011-09-03 12:00:00 Ts debe ser mayor o igual a Td Ts=5.6 - Td=5.7 2023-11-19 07:35:00
1 2011-09-04 11:00:00 Ts debe ser mayor o igual a Td Ts=4.5 - Td=4.6 2023-11-19 07:35:00
1 2011-09-09 03:00:00 Ts debe ser mayor o igual a Td Ts=8.6 - Td=8.7 2023-11-19 07:35:00
1 2011-09-09 05:00:00 Ts debe ser mayor o igual a Td Ts=8.6 - Td=8.7 2023-11-19 07:35:00
1 2011-09-09 13:00:00 Ts debe ser mayor o igual a Td Ts=9.7 - Td=9.8 2023-11-19 07:35:00
1 2011-09-10 11:00:00 HR (Humedad Relativa) es igual a 100% y Ts <> Td 0.3 - 0.0 2023-11-19 07:35:00
1 2011-09-12 10:00:00 Ts debe ser mayor o igual a Td Ts=3.7 - Td=3.9 2023-11-19 07:35:00
1 2011-10-07 10:00:00 Ts debe ser mayor o igual a Td Ts=2.2 - Td=2.3 2023-11-19 07:36:00
1 2011-10-09 01:00:00 Ts debe ser mayor o igual a Td Ts=6.5 - Td=6.6 2023-11-19 07:36:00
1 2011-10-11 07:00:00 Ts debe ser mayor o igual a Td Ts=2.2 - Td=2.3 2023-11-19 07:36:00
1 2011-11-04 07:00:00 Ts debe ser mayor o igual a Td Ts=5.6 - Td=5.7 2023-11-19 07:36:00
1 2011-11-19 06:00:00 Ts debe ser mayor o igual a Td Ts=6.4 - Td=6.5 2023-11-19 07:36:00
1 2012-05-12 09:00:00 Ts debe ser mayor o igual a Td Ts=4.6 - Td=4.7 2023-11-19 07:39:00
1 2012-08-06 06:00:00 Ts debe ser mayor o igual a Td Ts=0.2 - Td=0.3 2023-11-19 07:40:00
1 2012-10-08 08:00:00 Ts debe ser mayor o igual a Td Ts=9.9 - Td=10.1 2023-11-19 07:41:00
1 2012-10-08 09:00:00 Ts debe ser mayor o igual a Td Ts=9.6 - Td=10.4 2023-11-19 07:41:00
1 2012-10-08 10:00:00 Ts debe ser mayor o igual a Td Ts=9.6 - Td=10.0 2023-11-19 07:41:00
1 2012-10-09 09:00:00 Ts debe ser mayor o igual a Td Ts=5.8 - Td=6.2 2023-11-19 07:41:00
1 2012-10-09 10:00:00 Ts debe ser mayor o igual a Td Ts=5.6 - Td=6.7 2023-11-19 07:41:00
1 2012-10-09 11:00:00 Ts debe ser mayor o igual a Td Ts=5.8 - Td=7.0 2023-11-19 07:41:00
1 2012-10-09 12:00:00 Ts debe ser mayor o igual a Td Ts=6.3 - Td=8.4 2023-11-19 07:41:00
1 2012-10-09 13:00:00 Ts debe ser mayor o igual a Td Ts=8.1 - Td=9.3 2023-11-19 07:41:00
1 2012-10-10 12:00:00 Ts debe ser mayor o igual a Td Ts=9.6 - Td=11.1 2023-11-19 07:41:00
1 2012-10-10 13:00:00 Ts debe ser mayor o igual a Td Ts=9.9 - Td=12.0 2023-11-19 07:41:00
1 2012-10-10 14:00:00 Ts debe ser mayor o igual a Td Ts=11.7 - Td=12.5 2023-11-19 07:41:00
1 2012-10-14 06:00:00 Ts debe ser mayor o igual a Td Ts=8.7 - Td=10.0 2023-11-19 07:41:00
1 2013-06-25 23:00:00 Ts debe ser mayor o igual a Td Ts=4.4 - Td=4.5 2023-11-19 07:44:00
1 2013-09-20 05:00:00 Ts debe ser mayor o igual a Td Ts=1.8 - Td=1.9 2023-11-19 07:46:00
1 2013-11-05 08:00:00 Ts debe ser mayor o igual a Td Ts=4.4 - Td=4.5 2023-11-19 07:46:00
1 2014-06-30 11:00:00 Ts debe ser mayor o igual a Td Ts=2.8 - Td=2.9 2023-11-19 07:50:00
Errores del Nivel 154
Nivel Fecha del Dato Descripción Información Error Fecha Ingreso
2 2022-08-26 00:00:00 Temperatura 17.3 del 25-08-2022 22:00, Mayor que la Máxima 15.9 26-08-2022 00:00 17.3 -- 15.9 2024-06-28 10:33:00
2 2022-08-27 00:00:00 Temperatura 21.2 del 26-08-2022 18:00, Mayor que la Máxima 13.1 27-08-2022 00:00 21.2 -- 13.1 2024-06-28 10:33:00
2 2022-08-28 00:00:00 Temperatura 21.2 del 27-08-2022 18:00, Mayor que la Máxima 13.4 28-08-2022 00:00 21.2 -- 13.4 2024-06-28 10:33:00
2 2022-08-29 00:00:00 Temperatura 31.8 del 28-08-2022 20:00, Mayor que la Máxima 24.7 29-08-2022 00:00 31.8 -- 24.7 2024-06-28 10:33:00
2 2022-08-30 00:00:00 Temperatura 31.7 del 29-08-2022 17:00, Mayor que la Máxima 22.3 30-08-2022 00:00 31.7 -- 22.3 2024-06-28 10:33:00
2 2022-08-31 00:00:00 Temperatura 13.2 del 30-08-2022 15:00, Mayor que la Máxima 9.7 31-08-2022 00:00 13.2 -- 9.7 2024-06-28 10:33:00
2 2022-09-01 00:00:00 Temperatura 19.1 del 31-08-2022 18:00, Mayor que la Máxima 12.2 01-09-2022 00:00 19.1 -- 12.2 2024-06-28 10:33:00
2 2022-09-02 00:00:00 Temperatura 23.1 del 01-09-2022 19:00, Mayor que la Máxima 14.9 02-09-2022 00:00 23.1 -- 14.9 2024-06-28 10:33:00
2 2022-09-03 00:00:00 Temperatura 30.2 del 02-09-2022 18:00, Mayor que la Máxima 21.8 03-09-2022 00:00 30.2 -- 21.8 2022-09-07 03:41:00
2 2022-09-04 00:00:00 Temperatura 29.4 del 03-09-2022 18:00, Mayor que la Máxima 21.2 04-09-2022 00:00 29.4 -- 21.2 2022-09-07 04:41:00
2 2022-09-05 00:00:00 Temperatura 31.0 del 04-09-2022 19:00, Mayor que la Máxima 22.6 05-09-2022 00:00 31.0 -- 22.6 2022-09-07 05:41:00
2 2022-09-06 00:00:00 Temperatura 32.3 del 05-09-2022 17:00, Mayor que la Máxima 22.7 06-09-2022 00:00 32.3 -- 22.7 2022-09-07 06:42:00
2 2022-09-07 00:00:00 Temperatura 28.8 del 06-09-2022 16:00, Mayor que la Máxima 20.4 07-09-2022 00:00 28.8 -- 20.4 2022-09-07 07:41:00
2 2022-08-26 12:00:00 Temperatura 0.2 del 26-08-2022 06:00, Menor que la Mínima 1.0 26-08-2022 12:00 0.2 -- 1.0 2024-06-28 10:33:00
2 2022-08-27 12:00:00 Temperatura 0.5 del 27-08-2022 11:00, Menor que la Mínima 1.5 27-08-2022 12:00 0.5 -- 1.5 2024-06-28 10:33:00
2 2022-08-28 12:00:00 Temperatura -1.0 del 28-08-2022 07:00, Menor que la Mínima 0.0 28-08-2022 12:00 -1.0 -- 0.0 2024-06-28 10:33:00
2 2022-08-29 12:00:00 Temperatura 3.8 del 29-08-2022 11:00, Menor que la Mínima 5.3 29-08-2022 12:00 3.8 -- 5.3 2024-06-28 10:33:00
2 2022-08-30 12:00:00 Temperatura 4.7 del 30-08-2022 06:00, Menor que la Mínima 5.5 30-08-2022 12:00 4.7 -- 5.5 2024-06-28 10:33:00
2 2022-09-01 12:00:00 Temperatura 2.0 del 01-09-2022 10:00, Menor que la Mínima 2.7 01-09-2022 12:00 2.0 -- 2.7 2024-06-28 10:33:00
2 2022-09-02 12:00:00 Temperatura -1.0 del 02-09-2022 06:00, Menor que la Mínima 0.7 02-09-2022 12:00 -1.0 -- 0.7 2024-06-28 10:33:00
2 2022-09-03 12:00:00 Temperatura 1.8 del 03-09-2022 11:00, Menor que la Mínima 3.1 03-09-2022 12:00 1.8 -- 3.1 2022-09-07 03:41:00
2 2022-09-04 12:00:00 Temperatura 2.2 del 04-09-2022 08:00, Menor que la Mínima 3.2 04-09-2022 12:00 2.2 -- 3.2 2022-09-07 04:41:00
2 2022-09-05 12:00:00 Temperatura 4.5 del 05-09-2022 10:00, Menor que la Mínima 5.3 05-09-2022 12:00 4.5 -- 5.3 2022-09-07 05:41:00
2 2022-09-06 12:00:00 Temperatura 4.3 del 06-09-2022 09:00, Menor que la Mínima 5.6 06-09-2022 12:00 4.3 -- 5.6 2022-09-07 06:42:00
Errores del Nivel 24
Informe generado el 13-07-2024 03:51
Requerimiento: RE6001